createdAt,value
2022-12-08T00:01:57.060Z,78.57
2022-12-08T00:04:27.285Z,78.48
2022-12-08T00:07:15.130Z,78.44
2022-12-08T00:09:43.791Z,78.57
2022-12-08T00:12:17.741Z,78.50
2022-12-08T00:14:48.336Z,78.54
2022-12-08T00:17:17.810Z,78.40
2022-12-08T00:19:46.391Z,78.50
2022-12-08T00:22:15.861Z,78.46
2022-12-08T00:24:46.860Z,78.59
2022-12-08T00:27:18.580Z,78.56
2022-12-08T00:29:47.618Z,78.60
2022-12-08T00:32:16.308Z,78.72
2022-12-08T00:34:45.288Z,78.73
2022-12-08T00:37:14.501Z,78.86
2022-12-08T00:39:43.178Z,78.74
2022-12-08T00:42:15.235Z,78.51
2022-12-08T00:44:46.354Z,78.36
2022-12-08T00:47:17.752Z,78.54
2022-12-08T00:49:50.150Z,78.55
2022-12-08T00:52:18.946Z,78.67
2022-12-08T00:54:47.584Z,78.55
2022-12-08T00:57:16.433Z,78.69
2022-12-08T00:59:45.373Z,78.69
2022-12-08T01:02:14.157Z,78.52
2022-12-08T01:04:43.300Z,78.43
2022-12-08T01:07:12.060Z,78.32
2022-12-08T01:09:41.250Z,78.74
2022-12-08T01:12:10.507Z,78.82
2022-12-08T01:14:39.538Z,78.66
2022-12-08T01:17:08.804Z,78.59
2022-12-08T01:19:37.743Z,78.49
2022-12-08T01:22:06.631Z,78.39
2022-12-08T01:24:35.467Z,78.46
2022-12-08T01:27:04.327Z,78.67
2022-12-08T01:29:33.292Z,78.70
2022-12-08T01:32:02.394Z,78.68
2022-12-08T01:34:31.388Z,78.76
2022-12-08T01:37:00.222Z,78.76
2022-12-08T01:39:28.993Z,78.82
2022-12-08T01:41:58.187Z,78.53
2022-12-08T01:44:26.896Z,78.75
2022-12-08T01:46:55.982Z,78.78
2022-12-08T01:49:34.202Z,78.75
2022-12-08T01:52:05.906Z,78.84
2022-12-08T01:54:39.820Z,78.89
2022-12-08T01:57:29.980Z,78.85
2022-12-08T02:00:09.345Z,78.90
2022-12-08T02:02:52.679Z,78.93
2022-12-08T02:05:25.046Z,78.95
2022-12-08T02:07:57.242Z,78.86
2022-12-08T02:10:30.946Z,78.67
2022-12-08T02:13:01.388Z,78.47
2022-12-08T02:16:06.022Z,78.53
2022-12-08T02:19:29.783Z,78.46
2022-12-08T02:22:26.069Z,78.57
2022-12-08T02:25:22.190Z,78.64
2022-12-08T02:28:17.433Z,78.60
2022-12-08T02:31:12.860Z,78.52
2022-12-08T02:34:00.688Z,78.62
2022-12-08T02:36:41.547Z,78.83
2022-12-08T02:39:15.749Z,78.75
2022-12-08T02:42:06.544Z,78.68
2022-12-08T02:44:48.469Z,78.82
2022-12-08T02:47:23.703Z,78.69
2022-12-08T02:49:52.859Z,78.94
2022-12-08T02:52:21.561Z,78.93
2022-12-08T02:55:15.487Z,79.05
2022-12-08T02:57:44.484Z,79.02
2022-12-08T03:00:17.263Z,79.02
2022-12-08T03:02:59.741Z,79.15
2022-12-08T03:05:54.461Z,79.11
2022-12-08T03:08:46.476Z,78.77
2022-12-08T03:11:22.425Z,78.70
2022-12-08T03:14:00.571Z,78.97
2022-12-08T03:16:31.887Z,78.72
2022-12-08T03:19:18.225Z,78.98
2022-12-08T03:22:03.583Z,79.04
2022-12-08T03:24:37.347Z,79.21
2022-12-08T03:27:10.699Z,79.22
2022-12-08T03:29:39.775Z,79.24
2022-12-08T03:32:20.983Z,79.28
2022-12-08T03:34:51.920Z,79.36
2022-12-08T03:37:21.305Z,79.23
2022-12-08T03:39:50.258Z,79.16
2022-12-08T03:42:20.233Z,79.26
2022-12-08T03:44:49.755Z,79.32
2022-12-08T03:47:18.720Z,79.27
2022-12-08T03:49:47.428Z,79.20
2022-12-08T03:52:16.290Z,79.33
2022-12-08T03:54:47.761Z,79.18
2022-12-08T03:57:16.610Z,79.22
2022-12-08T03:59:45.699Z,79.40
2022-12-08T04:02:14.682Z,79.43
2022-12-08T04:04:43.462Z,79.59
2022-12-08T04:07:12.679Z,79.52
2022-12-08T04:09:42.091Z,79.42
2022-12-08T04:12:11.208Z,79.32
2022-12-08T04:14:40.171Z,79.35
2022-12-08T04:17:09.082Z,79.34
2022-12-08T04:19:37.997Z,79.25
2022-12-08T04:22:07.821Z,79.10
2022-12-08T04:24:36.438Z,79.06
2022-12-08T04:27:05.132Z,79.04
2022-12-08T04:29:34.287Z,79.00
2022-12-08T04:32:03.025Z,79.21
2022-12-08T04:34:31.959Z,79.22
2022-12-08T04:37:01.367Z,79.17
2022-12-08T04:39:30.105Z,79.39
2022-12-08T04:42:20.460Z,79.36
2022-12-08T04:44:52.478Z,79.59
2022-12-08T04:47:22.962Z,79.68
2022-12-08T04:49:51.374Z,79.64
2022-12-08T04:52:19.968Z,79.61
2022-12-08T04:54:49.514Z,79.37
2022-12-08T04:57:18.062Z,79.30
2022-12-08T04:59:46.571Z,79.35
2022-12-08T05:02:15.638Z,79.44
2022-12-08T05:04:44.276Z,79.55
2022-12-08T05:07:12.886Z,79.58
2022-12-08T05:09:42.240Z,79.61
2022-12-08T05:12:11.002Z,79.46
2022-12-08T05:14:39.571Z,79.58
2022-12-08T05:17:09.907Z,79.66
2022-12-08T05:19:38.379Z,79.63
2022-12-08T05:22:06.968Z,79.71
2022-12-08T05:24:36.590Z,79.79
2022-12-08T05:27:05.241Z,79.62
2022-12-08T05:29:33.828Z,79.50
2022-12-08T05:32:03.139Z,79.34
2022-12-08T05:34:31.884Z,79.49
2022-12-08T05:37:00.390Z,79.72
2022-12-08T05:39:29.882Z,79.64
2022-12-08T05:41:59.606Z,79.76
2022-12-08T05:44:28.272Z,79.68
2022-12-08T05:46:57.786Z,79.72
2022-12-08T05:49:26.510Z,79.69
2022-12-08T05:51:55.079Z,79.69
2022-12-08T05:54:24.578Z,79.36
2022-12-08T05:56:53.136Z,79.50
2022-12-08T05:59:21.850Z,79.46
2022-12-08T06:01:51.619Z,79.58
2022-12-08T06:04:20.719Z,79.45
2022-12-08T06:06:50.336Z,79.44
2022-12-08T06:09:19.895Z,79.57
2022-12-08T06:11:48.981Z,79.66
2022-12-08T06:14:17.908Z,79.58
2022-12-08T06:16:55.085Z,79.53
2022-12-08T06:19:23.811Z,79.52
2022-12-08T06:21:52.679Z,79.61
2022-12-08T06:24:21.715Z,79.70
2022-12-08T06:26:50.554Z,79.64
2022-12-08T06:29:19.294Z,79.54
2022-12-08T06:31:48.239Z,79.64
2022-12-08T06:34:18.614Z,79.50
2022-12-08T06:36:47.564Z,79.52
2022-12-08T06:39:16.593Z,79.60
2022-12-08T06:42:04.026Z,79.53
2022-12-08T06:44:33.281Z,79.61
2022-12-08T06:47:02.200Z,79.66
2022-12-08T06:49:30.769Z,79.63
2022-12-08T06:52:03.409Z,79.67
2022-12-08T06:54:32.056Z,79.63
2022-12-08T06:57:01.003Z,79.62
2022-12-08T06:59:30.055Z,79.61
2022-12-08T07:01:58.730Z,79.57
2022-12-08T07:04:27.932Z,79.61
2022-12-08T07:06:57.285Z,79.65
2022-12-08T07:09:25.940Z,79.65
2022-12-08T07:11:54.749Z,79.68
2022-12-08T07:14:25.582Z,79.61
2022-12-08T07:16:54.217Z,79.68
2022-12-08T07:19:23.315Z,79.65
2022-12-08T07:21:52.543Z,79.60
2022-12-08T07:24:22.049Z,79.68
2022-12-08T07:26:50.958Z,79.67
2022-12-08T07:29:25.972Z,79.58
2022-12-08T07:31:55.857Z,79.57
2022-12-08T07:34:24.983Z,79.64
2022-12-08T07:36:53.543Z,79.67
2022-12-08T07:39:22.666Z,79.65
2022-12-08T07:41:51.678Z,79.72
2022-12-08T07:44:20.248Z,79.69
2022-12-08T07:46:49.471Z,79.72
2022-12-08T07:49:18.630Z,79.78
2022-12-08T07:51:47.177Z,79.83
2022-12-08T07:54:16.281Z,79.80
2022-12-08T07:56:46.350Z,79.79
2022-12-08T07:59:15.075Z,79.81
2022-12-08T08:01:45.504Z,79.84
2022-12-08T08:04:15.015Z,79.84
2022-12-08T08:06:43.856Z,79.83
2022-12-08T08:09:12.785Z,79.85
2022-12-08T08:11:41.931Z,79.90
2022-12-08T08:14:10.689Z,79.91
2022-12-08T08:16:42.437Z,79.89
2022-12-08T08:19:11.910Z,79.86
2022-12-08T08:21:45.863Z,79.88
2022-12-08T08:24:15.508Z,79.81
2022-12-08T08:26:44.314Z,79.73
2022-12-08T08:29:13.236Z,79.89
2022-12-08T08:31:42.731Z,79.93
2022-12-08T08:34:11.428Z,80.02
2022-12-08T08:36:40.175Z,79.98
2022-12-08T08:39:09.519Z,80.00
2022-12-08T08:41:38.570Z,80.08
2022-12-08T08:44:07.218Z,80.01
2022-12-08T08:46:36.217Z,79.95
2022-12-08T08:49:05.095Z,79.92
2022-12-08T08:51:35.702Z,79.88
2022-12-08T08:54:12.233Z,79.79
2022-12-08T08:56:56.210Z,79.72
2022-12-08T08:59:31.260Z,79.70
2022-12-08T09:02:05.558Z,79.74
2022-12-08T09:04:36.060Z,79.79
2022-12-08T09:07:15.049Z,79.65
2022-12-08T09:09:45.913Z,79.94
2022-12-08T09:12:19.554Z,79.85
2022-12-08T09:14:50.751Z,79.95
2022-12-08T09:17:19.443Z,79.89
2022-12-08T09:19:48.004Z,79.85
2022-12-08T09:22:17.065Z,79.71
2022-12-08T09:24:45.972Z,79.66
2022-12-08T09:27:14.609Z,79.52
2022-12-08T09:29:43.415Z,79.49
2022-12-08T09:32:12.135Z,79.68
2022-12-08T09:34:40.706Z,79.61
2022-12-08T09:37:10.204Z,79.39
2022-12-08T09:39:38.966Z,79.54
2022-12-08T09:42:08.033Z,79.56
2022-12-08T09:45:00.328Z,79.51
2022-12-08T09:47:36.218Z,79.42
2022-12-08T09:50:29.510Z,79.56
2022-12-08T09:53:35.663Z,79.47
2022-12-08T09:56:14.938Z,79.10
2022-12-08T09:58:53.978Z,79.29
2022-12-08T10:01:27.493Z,79.38
2022-12-08T10:03:56.535Z,79.48
2022-12-08T10:06:40.016Z,79.46
2022-12-08T10:09:22.895Z,79.49
2022-12-08T10:12:20.877Z,79.54
2022-12-08T10:15:11.788Z,79.23
2022-12-08T10:17:52.724Z,79.08
2022-12-08T10:20:25.745Z,79.08
2022-12-08T10:23:37.758Z,78.82
2022-12-08T10:26:14.589Z,78.97
2022-12-08T10:28:45.334Z,79.06
2022-12-08T10:31:20.329Z,78.97
2022-12-08T10:33:57.921Z,79.02
2022-12-08T10:36:46.143Z,78.86
2022-12-08T10:39:35.388Z,78.97
2022-12-08T10:42:14.885Z,78.80
2022-12-08T10:44:52.992Z,79.00
2022-12-08T10:47:24.588Z,79.02
2022-12-08T10:50:21.273Z,78.80
2022-12-08T10:53:02.765Z,78.57
2022-12-08T10:55:41.664Z,78.81
2022-12-08T10:58:27.080Z,78.63
2022-12-08T11:01:00.975Z,78.68
2022-12-08T11:03:33.458Z,78.73
2022-12-08T11:06:11.073Z,78.62
2022-12-08T11:09:02.154Z,78.36
2022-12-08T11:11:46.350Z,78.37
2022-12-08T11:14:27.690Z,78.49
2022-12-08T11:17:09.022Z,78.48
2022-12-08T11:19:43.492Z,78.54
2022-12-08T11:22:33.364Z,78.47
2022-12-08T11:25:19.661Z,78.51
2022-12-08T11:27:51.243Z,78.43
2022-12-08T11:30:25.367Z,78.30
2022-12-08T11:33:06.833Z,78.29
2022-12-08T11:35:39.299Z,78.25
2022-12-08T11:38:24.218Z,77.99
2022-12-08T11:41:14.206Z,78.17
2022-12-08T11:44:06.015Z,78.19
2022-12-08T11:46:51.465Z,78.21
2022-12-08T11:49:21.943Z,78.12
2022-12-08T11:52:14.946Z,77.99
2022-12-08T11:54:48.365Z,78.07
2022-12-08T11:57:21.017Z,78.21
2022-12-08T11:59:52.647Z,78.18
2022-12-08T12:02:27.597Z,78.07
2022-12-08T12:06:05.484Z,78.05
2022-12-08T12:08:49.114Z,77.83
2022-12-08T12:12:01.517Z,77.75
2022-12-08T12:14:55.506Z,78.03
2022-12-08T12:17:53.948Z,77.89
2022-12-08T12:21:02.105Z,77.82
2022-12-08T12:24:00.883Z,77.74
2022-12-08T12:26:54.486Z,77.91
2022-12-08T12:29:26.481Z,77.91
2022-12-08T12:32:04.013Z,77.79
2022-12-08T12:34:36.642Z,77.78
2022-12-08T12:37:15.324Z,77.83
2022-12-08T12:39:55.548Z,77.71
2022-12-08T12:42:44.614Z,77.47
2022-12-08T12:45:23.125Z,77.46
2022-12-08T12:47:57.326Z,77.47
2022-12-08T12:50:35.453Z,77.42
2022-12-08T12:53:48.289Z,77.24
2022-12-08T12:56:50.794Z,77.10
2022-12-08T12:59:29.760Z,77.06
2022-12-08T13:01:59.008Z,77.02
2022-12-08T13:04:37.770Z,77.19
2022-12-08T13:07:07.456Z,76.99
2022-12-08T13:09:40.150Z,76.91
2022-12-08T13:12:20.380Z,76.93
2022-12-08T13:14:58.869Z,76.98
2022-12-08T13:17:34.175Z,76.88
2022-12-08T13:20:07.608Z,76.97
2022-12-08T13:23:08.953Z,77.03
2022-12-08T13:25:40.870Z,76.85
2022-12-08T13:28:26.591Z,76.96
2022-12-08T13:31:02.542Z,76.91
2022-12-08T13:33:34.245Z,76.82
2022-12-08T13:36:17.516Z,76.77
2022-12-08T13:38:48.216Z,76.76
2022-12-08T13:41:23.179Z,76.75
2022-12-08T13:48:13.619Z,76.69
2022-12-08T13:56:59.658Z,76.62
2022-12-08T13:58:47.710Z,76.59
2022-12-08T14:01:22.630Z,76.58
2022-12-08T14:06:53.531Z,76.56
2022-12-08T14:09:29.599Z,76.65
2022-12-08T14:12:03.768Z,76.66
2022-12-08T14:15:02.599Z,76.60
2022-12-08T14:17:35.011Z,76.40
2022-12-08T14:20:06.970Z,76.43
2022-12-08T14:22:39.436Z,76.34
2022-12-08T14:25:16.567Z,76.29
2022-12-08T14:27:46.711Z,76.26
2022-12-08T14:30:26.467Z,76.36
2022-12-08T14:32:59.185Z,76.43
2022-12-08T14:35:37.140Z,76.35
2022-12-08T14:38:17.745Z,76.39
2022-12-08T14:41:01.799Z,76.53
2022-12-08T14:43:31.935Z,76.43
2022-12-08T14:46:19.313Z,76.38
2022-12-08T14:48:48.048Z,76.40
2022-12-08T14:51:19.930Z,76.45
2022-12-08T14:54:00.301Z,76.36
2022-12-08T14:56:40.184Z,76.31
2022-12-08T14:59:12.434Z,76.26
2022-12-08T15:01:43.387Z,76.29
2022-12-08T15:04:17.884Z,76.20
2022-12-08T15:06:54.113Z,76.35
2022-12-08T15:09:33.609Z,76.34
2022-12-08T15:12:05.275Z,76.18
2022-12-08T15:14:37.465Z,75.76
2022-12-08T15:17:49.882Z,75.55
2022-12-08T15:20:35.861Z,75.60
2022-12-08T15:25:51.519Z,75.70
2022-12-08T15:28:29.463Z,75.73
2022-12-08T15:30:59.390Z,75.94
2022-12-08T15:33:28.431Z,75.87
2022-12-08T15:35:57.144Z,76.07
2022-12-08T15:38:29.184Z,76.21
2022-12-08T15:41:01.269Z,76.15
2022-12-08T15:43:32.344Z,76.21
2022-12-08T15:46:01.275Z,76.16
2022-12-08T15:48:31.049Z,76.22
2022-12-08T15:50:59.987Z,76.18
2022-12-08T15:53:29.061Z,76.01
2022-12-08T15:58:57.570Z,75.87
2022-12-08T16:01:27.224Z,75.81
2022-12-08T16:09:42.226Z,75.35
2022-12-08T16:13:26.869Z,75.54
2022-12-08T16:18:17.616Z,75.64
2022-12-08T16:23:42.932Z,75.88
2022-12-08T16:27:21.958Z,75.56
2022-12-08T16:29:17.665Z,75.83
2022-12-08T16:31:46.371Z,75.92
2022-12-08T16:34:15.561Z,75.88
2022-12-08T16:36:44.429Z,75.76
2022-12-08T16:39:14.176Z,75.71
2022-12-08T16:42:01.814Z,75.62
2022-12-08T16:44:30.558Z,75.69
2022-12-08T16:46:59.347Z,75.63
2022-12-08T16:49:28.278Z,75.57
2022-12-08T16:51:56.833Z,75.62
2022-12-08T16:54:25.842Z,75.74
2022-12-08T16:56:54.489Z,75.70
2022-12-08T16:59:23.819Z,75.82
2022-12-08T17:01:52.709Z,75.72
2022-12-08T17:04:31.352Z,75.83
2022-12-08T17:07:01.287Z,75.84
2022-12-08T17:09:31.996Z,75.76
2022-12-08T17:12:03.959Z,75.92
2022-12-08T17:14:35.829Z,76.11
2022-12-08T17:17:04.676Z,75.99
2022-12-08T17:19:34.193Z,75.85
2022-12-08T17:22:03.481Z,75.81
2022-12-08T17:24:32.483Z,75.78
2022-12-08T17:27:04.557Z,75.79
2022-12-08T17:29:35.367Z,75.87
2022-12-08T17:32:04.401Z,75.79
2022-12-08T17:34:33.112Z,75.91
2022-12-08T17:37:02.170Z,75.81
2022-12-08T17:39:30.927Z,75.88
2022-12-08T17:42:01.651Z,75.86
2022-12-08T17:44:31.526Z,75.89
2022-12-08T17:47:01.455Z,75.87
2022-12-08T17:49:30.908Z,75.86
2022-12-08T17:52:02.666Z,76.01
2022-12-08T17:54:31.494Z,76.06
2022-12-08T17:57:00.413Z,75.67
2022-12-08T17:59:30.020Z,75.75
2022-12-08T18:02:00.123Z,75.87
2022-12-08T18:04:35.737Z,75.94
2022-12-08T18:07:13.940Z,76.06
2022-12-08T18:09:54.136Z,75.95
2022-12-08T18:12:32.446Z,75.94
2022-12-08T18:15:13.405Z,75.90
2022-12-08T18:17:54.479Z,75.89
2022-12-08T18:20:35.056Z,75.63
2022-12-08T18:23:12.868Z,75.57
2022-12-08T18:25:54.870Z,75.82
2022-12-08T18:28:32.538Z,75.69
2022-12-08T18:31:25.918Z,75.81
2022-12-08T18:34:04.465Z,75.85
2022-12-08T18:36:45.918Z,76.09
2022-12-08T18:39:34.186Z,75.95
2022-12-08T18:42:32.141Z,75.90
2022-12-08T18:45:22.121Z,76.13
2022-12-08T18:48:02.247Z,75.90
2022-12-08T18:50:39.708Z,75.43
2022-12-08T18:53:19.626Z,75.47
2022-12-08T18:55:59.783Z,75.50
2022-12-08T18:58:37.198Z,75.67
2022-12-08T19:01:18.436Z,75.79
2022-12-08T19:04:26.871Z,76.00
2022-12-08T19:06:57.843Z,76.03
2022-12-08T19:09:39.277Z,75.91
2022-12-08T19:12:25.299Z,76.00
2022-12-08T19:15:04.414Z,76.09
2022-12-08T19:17:42.176Z,75.91
2022-12-08T19:20:22.848Z,76.20
2022-12-08T19:23:05.000Z,76.13
2022-12-08T19:25:42.388Z,76.25
2022-12-08T19:28:20.006Z,76.19
2022-12-08T19:30:58.936Z,76.15
2022-12-08T19:33:40.526Z,75.99
2022-12-08T19:36:22.259Z,76.14
2022-12-08T19:39:20.245Z,76.17
2022-12-08T19:42:14.147Z,76.30
2022-12-08T19:44:55.360Z,76.42
2022-12-08T19:47:35.981Z,76.32
2022-12-08T19:50:39.542Z,76.21
2022-12-08T19:53:21.443Z,76.21
2022-12-08T19:56:03.706Z,76.40
2022-12-08T19:58:44.258Z,76.20
2022-12-08T20:01:22.468Z,75.99
2022-12-08T20:04:06.571Z,76.24
2022-12-08T20:06:43.552Z,76.22
2022-12-08T20:09:29.960Z,76.15
2022-12-08T20:12:20.432Z,76.24
2022-12-08T20:15:10.791Z,76.30
2022-12-08T20:17:53.613Z,76.27
2022-12-08T20:20:33.920Z,76.08
2022-12-08T20:23:15.197Z,75.85
2022-12-08T20:25:59.621Z,76.01
2022-12-08T20:28:39.080Z,76.21
2022-12-08T20:31:34.413Z,76.05
2022-12-08T20:34:21.249Z,76.05
2022-12-08T20:37:01.677Z,76.17
2022-12-08T20:39:43.858Z,76.16
2022-12-08T20:42:26.154Z,76.17
2022-12-08T20:45:11.803Z,76.26
2022-12-08T20:47:50.402Z,76.52
2022-12-08T20:50:37.304Z,76.39
2022-12-08T20:53:18.435Z,76.44
2022-12-08T20:56:01.393Z,76.59
2022-12-08T20:58:45.128Z,76.08
2022-12-08T21:01:32.283Z,75.96
2022-12-08T21:04:18.918Z,76.11
2022-12-08T21:07:05.551Z,76.18
2022-12-08T21:09:50.620Z,76.30
2022-12-08T21:12:35.803Z,76.10
2022-12-08T21:15:21.360Z,76.36
2022-12-08T21:17:59.041Z,76.43
2022-12-08T21:20:39.380Z,76.63
2022-12-08T21:23:17.208Z,76.72
2022-12-08T21:25:55.322Z,76.92
2022-12-08T21:28:45.939Z,76.63
2022-12-08T21:31:30.190Z,76.75
2022-12-08T21:34:11.158Z,76.47
2022-12-08T21:36:54.791Z,76.43
2022-12-08T21:39:35.928Z,76.65
2022-12-08T21:42:38.672Z,76.48
2022-12-08T21:45:23.909Z,76.48
2022-12-08T21:48:09.103Z,76.47
2022-12-08T21:50:52.070Z,76.59
2022-12-08T21:53:34.014Z,76.47
2022-12-08T21:56:15.531Z,76.43
2022-12-08T21:58:54.966Z,76.67
2022-12-08T22:01:37.866Z,76.40
2022-12-08T22:04:20.788Z,76.45
2022-12-08T22:07:00.701Z,76.42
2022-12-08T22:09:41.652Z,76.31
2022-12-08T22:12:23.609Z,76.42
2022-12-08T22:15:04.500Z,76.30
2022-12-08T22:17:48.053Z,76.38
2022-12-08T22:20:29.779Z,76.48
2022-12-08T22:23:10.732Z,76.39
2022-12-08T22:25:52.215Z,76.35
2022-12-08T22:28:30.687Z,76.46
2022-12-08T22:31:19.024Z,76.28
2022-12-08T22:34:02.937Z,76.50
2022-12-08T22:36:46.039Z,76.66
2022-12-08T22:39:24.742Z,76.55
2022-12-08T22:42:03.365Z,76.49
2022-12-08T22:44:43.121Z,76.49
2022-12-08T22:47:24.576Z,76.43
2022-12-08T22:50:06.575Z,76.40
2022-12-08T22:52:46.813Z,76.32
2022-12-08T22:55:24.661Z,76.36
2022-12-08T22:58:01.807Z,76.35
2022-12-08T23:00:39.464Z,76.41
2022-12-08T23:03:20.743Z,76.79
2022-12-08T23:06:03.504Z,76.56
2022-12-08T23:08:43.882Z,76.66
2022-12-08T23:11:25.449Z,76.50
2022-12-08T23:14:06.739Z,76.76
2022-12-08T23:16:46.802Z,76.68
2022-12-08T23:19:26.319Z,76.60
2022-12-08T23:22:05.368Z,76.44
2022-12-08T23:24:44.207Z,76.60
2022-12-08T23:27:24.506Z,76.55
2022-12-08T23:30:05.474Z,76.63
2022-12-08T23:32:46.187Z,76.43
2022-12-08T23:35:24.548Z,76.63
2022-12-08T23:38:07.487Z,76.68
2022-12-08T23:40:54.527Z,76.65
2022-12-08T23:43:34.115Z,76.80
2022-12-08T23:46:15.105Z,76.67
2022-12-08T23:48:59.956Z,76.65
2022-12-08T23:51:40.171Z,76.48
2022-12-08T23:54:21.050Z,76.58
2022-12-08T23:57:02.530Z,76.62
2022-12-08T23:59:43.095Z,76.69
